Time;durP1;ratioP1;P1;durP2;ratioP2;P2;SDS_P1;SDS_P2;PMS_P1;PMS_P2;Temp;Humidity;BMP_temperature;BMP_pressure;BME280_temperature;BME280_humidity;BME280_pressure;Samples;Min_cycle;Max_cycle;Signal;HPM_P1;HPM_P2
2021/09/22 00:00:49;;;;;;;9.13;1.98;;;;;;;9.24;100.00;102163.50;4748822;30;20044;-78
2021/09/22 00:03:14;;;;;;;8.10;1.60;;;;;;;9.23;100.00;102156.41;4761731;30;20070;-77
2021/09/22 00:05:40;;;;;;;12.43;1.83;;;;;;;9.19;100.00;102152.38;4758121;30;20055;-78
2021/09/22 00:08:05;;;;;;;12.93;2.17;;;;;;;9.19;100.00;102160.44;4757859;30;20059;-78
2021/09/22 00:10:31;;;;;;;11.05;2.20;;;;;;;9.16;100.00;102144.63;4771816;30;20044;-78
2021/09/22 00:12:58;;;;;;;13.65;2.55;;;;;;;9.21;100.00;102153.06;4757339;30;20040;-78
2021/09/22 00:15:25;;;;;;;13.25;2.67;;;;;;;9.24;100.00;102152.75;4757426;30;20511;-78
2021/09/22 00:17:51;;;;;;;18.27;2.50;;;;;;;9.27;100.00;102157.81;4786726;30;20051;-78
2021/09/22 00:20:24;;;;;;;22.83;2.97;;;;;;;9.45;100.00;102157.75;4780321;30;20115;-78
2021/09/22 00:22:58;;;;;;;15.40;2.20;;;;;;;9.52;100.00;102150.75;4758888;30;20032;-78
2021/09/22 00:25:24;;;;;;;17.55;2.45;;;;;;;9.48;100.00;102140.47;4772567;30;20067;-78
2021/09/22 00:27:49;;;;;;;11.15;2.00;;;;;;;9.47;100.00;102141.47;4757429;30;20044;-78
2021/09/22 00:30:15;;;;;;;14.30;2.78;;;;;;;9.44;100.00;102148.03;4756491;30;20443;-79
2021/09/22 00:32:43;;;;;;;16.65;2.45;;;;;;;9.39;100.00;102135.03;4770928;30;20052;-78
2021/09/22 00:35:08;;;;;;;20.27;3.20;;;;;;;9.51;100.00;102143.69;4772620;30;20063;-77
2021/09/22 00:37:34;;;;;;;28.02;3.25;;;;;;;9.64;100.00;102143.25;4773344;30;20078;-78
2021/09/22 00:39:59;;;;;;;25.23;3.22;;;;;;;9.72;100.00;102148.66;4772780;30;20035;-78
2021/09/22 00:42:25;;;;;;;23.95;3.67;;;;;;;9.81;100.00;102154.94;4757906;30;20035;-78
2021/09/22 00:44:57;;;;;;;19.38;2.70;;;;;;;9.81;100.00;102158.47;4773248;30;20028;-78
2021/09/22 00:47:24;;;;;;;14.10;2.50;;;;;;;9.74;100.00;102153.91;4773835;30;20070;-79
2021/09/22 00:49:50;;;;;;;26.02;3.05;;;;;;;9.69;100.00;102154.34;4773199;30;20066;-78
2021/09/22 00:52:19;;;;;;;19.13;3.08;;;;;;;9.68;100.00;102136.56;4758820;30;20130;-78
2021/09/22 00:54:46;;;;;;;21.30;3.25;;;;;;;9.69;100.00;102140.91;4773258;30;20097;-78
2021/09/22 00:57:12;;;;;;;21.70;3.90;;;;;;;9.71;100.00;102141.59;4759900;30;20036;-78
2021/09/22 00:59:38;;;;;;;22.70;3.22;;;;;;;9.67;100.00;102129.50;4775161;30;20055;-77
2021/09/22 01:02:05;;;;;;;32.13;4.13;;;;;;;9.73;100.00;102125.31;4775791;30;20056;-77
2021/09/22 01:04:31;;;;;;;25.33;3.88;;;;;;;9.85;100.00;102143.69;4760357;30;20056;-77
2021/09/22 01:06:57;;;;;;;31.63;4.35;;;;;;;9.67;100.00;102113.38;4777512;30;20043;-78
2021/09/22 01:09:23;;;;;;;29.20;5.13;;;;;;;9.84;100.00;102147.38;4776315;30;20413;-78
2021/09/22 01:11:48;;;;;;;35.15;5.50;;;;;;;9.91;100.00;102154.81;4757116;30;20031;-78
2021/09/22 01:14:14;;;;;;;35.45;5.28;;;;;;;9.94;100.00;102157.19;4741396;30;20040;-77
2021/09/22 01:16:44;;;;;;;34.63;4.97;;;;;;;9.94;100.00;102159.88;4771346;30;20031;-78
2021/09/22 01:19:10;;;;;;;35.30;4.50;;;;;;;9.99;100.00;102165.59;4755537;30;20694;-79
2021/09/22 01:21:35;;;;;;;35.88;5.70;;;;;;;9.94;100.00;102162.56;4756145;30;20047;-77
2021/09/22 01:24:01;;;;;;;22.02;4.57;;;;;;;9.95;100.00;102166.91;4771303;30;20071;-78
2021/09/22 01:26:31;;;;;;;28.00;4.30;;;;;;;10.01;100.00;102172.50;4772180;30;20047;-78
2021/09/22 01:28:56;;;;;;;23.95;4.47;;;;;;;9.97;100.00;102159.53;4771802;30;20031;-78
2021/09/22 01:31:22;;;;;;;31.15;4.72;;;;;;;10.10;100.00;102173.38;4771904;30;20070;-78
2021/09/22 01:33:47;;;;;;;28.75;4.38;;;;;;;10.15;100.00;102170.19;4755659;30;20051;-78
2021/09/22 01:36:14;;;;;;;25.40;4.43;;;;;;;10.21;100.00;102170.38;4755907;30;20131;-78
2021/09/22 01:38:40;;;;;;;24.88;4.30;;;;;;;10.20;100.00;102159.75;4770760;30;20119;-77
2021/09/22 01:41:09;;;;;;;25.33;3.92;;;;;;;10.20;100.00;102154.38;4770093;30;20062;-78
2021/09/22 01:43:37;;;;;;;27.67;4.28;;;;;;;10.33;100.00;102154.78;4739157;30;20024;-77
2021/09/22 01:46:05;;;;;;;27.40;4.00;;;;;;;10.42;100.00;102158.34;4767354;30;20051;-78
2021/09/22 01:48:30;;;;;;;30.50;4.63;;;;;;;10.41;100.00;102156.69;4770274;29;20044;-78
2021/09/22 01:50:58;;;;;;;34.55;4.63;;;;;;;10.47;100.00;102156.03;4771781;30;20093;-78
2021/09/22 01:53:24;;;;;;;25.50;3.97;;;;;;;10.51;100.00;102163.59;4771495;30;20032;-78
2021/09/22 01:55:52;;;;;;;26.20;4.43;;;;;;;10.38;100.00;102135.47;4758938;30;20047;-78
2021/09/22 01:58:18;;;;;;;24.92;4.10;;;;;;;10.41;100.00;102152.13;4755702;30;20032;-78
2021/09/22 02:00:43;;;;;;;20.75;3.72;;;;;;;10.34;100.00;102164.56;4769896;30;20035;-78
2021/09/22 02:03:11;;;;;;;16.75;3.08;;;;;;;10.21;100.00;102162.31;4790942;29;20051;-78
2021/09/22 02:05:37;;;;;;;23.55;3.53;;;;;;;10.09;100.00;102169.81;4770913;30;20036;-78
2021/09/22 02:08:03;;;;;;;21.05;3.50;;;;;;;10.00;100.00;102162.75;4753231;30;20042;-79
2021/09/22 02:10:29;;;;;;;18.17;3.38;;;;;;;9.93;100.00;102158.16;4772869;30;20074;-78
2021/09/22 02:12:54;;;;;;;26.25;3.83;;;;;;;9.89;100.00;102160.31;4755398;30;20063;-77
2021/09/22 02:15:19;;;;;;;27.77;4.03;;;;;;;9.91;100.00;102149.44;4757095;30;20051;-78
2021/09/22 02:17:45;;;;;;;15.02;3.08;;;;;;;9.91;100.00;102149.44;4772203;30;20027;-78
2021/09/22 02:20:11;;;;;;;18.35;3.22;;;;;;;9.92;100.00;102157.31;4757216;30;20109;-78
2021/09/22 02:22:37;;;;;;;28.40;3.97;;;;;;;10.05;100.00;102167.63;4756442;30;20459;-78
2021/09/22 02:25:03;;;;;;;29.50;3.75;;;;;;;10.12;100.00;102160.59;4772533;30;20035;-78
2021/09/22 02:27:28;;;;;;;17.33;3.58;;;;;;;10.05;100.00;102155.03;4757599;30;20074;-78
2021/09/22 02:29:53;;;;;;;15.55;3.60;;;;;;;9.85;100.00;102142.84;4739263;30;20040;-78
2021/09/22 02:32:19;;;;;;;18.65;3.35;;;;;;;9.82;100.00;102138.63;4748732;30;20113;-78
2021/09/22 02:34:44;;;;;;;25.75;4.70;;;;;;;9.92;100.00;102153.78;4773383;30;20039;-78
2021/09/22 02:37:10;;;;;;;23.75;3.95;;;;;;;9.97;100.00;102140.72;4773592;30;20189;-78
2021/09/22 02:39:36;;;;;;;21.38;3.72;;;;;;;10.04;100.00;102139.91;4759980;30;20043;-78
2021/09/22 02:42:02;;;;;;;28.85;4.20;;;;;;;10.03;100.00;102135.53;4776206;30;20023;-78
2021/09/22 02:44:27;;;;;;;29.50;3.78;;;;;;;10.13;100.00;102138.06;4762440;30;20036;-77
2021/09/22 02:46:53;;;;;;;32.38;4.90;;;;;;;10.21;100.00;102132.72;4777463;30;20085;-77
2021/09/22 02:49:19;;;;;;;33.22;4.63;;;;;;;10.28;100.00;102131.09;4761024;30;20063;-78
2021/09/22 02:51:45;;;;;;;31.50;4.93;;;;;;;10.36;100.00;102138.31;4772493;30;20142;-78
2021/09/22 02:54:11;;;;;;;34.72;4.20;;;;;;;10.42;100.00;102131.44;4753158;30;20476;-78
2021/09/22 02:56:36;;;;;;;43.25;5.25;;;;;;;10.48;100.00;102125.41;4742510;30;20036;-77
2021/09/22 02:59:02;;;;;;;39.95;5.07;;;;;;;10.51;100.00;102123.22;4756309;30;20120;-78
2021/09/22 03:01:27;;;;;;;46.70;5.43;;;;;;;10.61;100.00;102120.38;4742264;30;20036;-78
2021/09/22 03:03:53;;;;;;;45.95;5.75;;;;;;;10.69;100.00;102123.06;4767444;30;20031;-77
2021/09/22 03:06:19;;;;;;;62.10;7.03;;;;;;;10.77;100.00;102120.38;4775305;30;20063;-78
2021/09/22 03:08:45;;;;;;;47.72;5.13;;;;;;;10.76;100.00;102107.94;4775112;30;20058;-77
2021/09/22 03:11:10;;;;;;;32.28;4.72;;;;;;;10.62;100.00;102115.81;4776508;30;20048;-79
2021/09/22 03:13:37;;;;;;;39.75;5.32;;;;;;;10.50;100.00;102115.31;4760907;30;20036;-77
2021/09/22 03:16:06;;;;;;;37.70;5.05;;;;;;;10.40;100.00;102120.00;4761771;30;20063;-77
2021/09/22 03:18:31;;;;;;;41.50;5.45;;;;;;;10.25;100.00;102098.25;4759056;30;20532;-78
2021/09/22 03:20:57;;;;;;;55.00;6.47;;;;;;;10.44;100.00;102113.28;4775664;30;20035;-77
2021/09/22 03:23:22;;;;;;;58.70;5.93;;;;;;;10.54;100.00;102124.75;4775212;30;20134;-78
2021/09/22 03:25:48;;;;;;;49.60;5.75;;;;;;;10.55;100.00;102123.72;4773564;30;20051;-77
2021/09/22 03:28:13;;;;;;;56.85;5.97;;;;;;;10.64;100.00;102135.34;4772975;30;20038;-78
2021/09/22 03:30:39;;;;;;;51.35;6.05;;;;;;;10.67;100.00;102130.47;4758373;30;20056;-78
2021/09/22 03:33:06;;;;;;;56.92;6.80;;;;;;;10.69;100.00;102125.75;4773405;30;20186;-78
2021/09/22 03:35:31;;;;;;;51.17;6.10;;;;;;;10.77;100.00;102131.16;4758746;30;20035;-78
2021/09/22 03:37:57;;;;;;;45.80;6.30;;;;;;;10.66;100.00;102101.88;4771970;30;20105;-78
2021/09/22 03:40:23;;;;;;;57.83;6.78;;;;;;;10.79;100.00;102128.28;4773376;30;20096;-78
2021/09/22 03:42:49;;;;;;;51.92;6.28;;;;;;;10.84;100.00;102130.47;4742614;30;20388;-77
2021/09/22 03:45:14;;;;;;;60.70;6.68;;;;;;;10.88;100.00;102124.56;4782348;29;20016;-78
2021/09/22 03:47:40;;;;;;;63.30;7.20;;;;;;;10.92;100.00;102115.16;4770068;30;20149;-78
2021/09/22 03:50:07;;;;;;;56.88;6.78;;;;;;;11.00;100.00;102125.09;4774851;30;20406;-78
2021/09/22 03:52:33;;;;;;;50.63;6.75;;;;;;;11.02;100.00;102121.19;4758543;30;20032;-79
2021/09/22 03:54:58;;;;;;;58.03;7.32;;;;;;;11.12;100.00;102122.88;4758177;30;20471;-78
2021/09/22 03:57:24;;;;;;;64.25;7.85;;;;;;;11.12;100.00;102118.31;4773625;30;20035;-78
2021/09/22 03:59:49;;;;;;;57.38;7.38;;;;;;;11.20;100.00;102117.50;4772282;30;20047;-78
2021/09/22 04:02:14;;;;;;;62.58;7.43;;;;;;;11.28;100.00;102117.47;4759236;30;20028;-77
2021/09/22 04:04:40;;;;;;;60.22;7.78;;;;;;;11.34;100.00;102107.84;4757706;30;20069;-79
2021/09/22 04:07:05;;;;;;;56.30;7.30;;;;;;;11.42;100.00;102105.13;4743995;30;20518;-78
2021/09/22 04:09:31;;;;;;;69.53;9.05;;;;;;;11.37;100.00;102086.78;4772308;30;20035;-78
2021/09/22 04:11:56;;;;;;;66.35;7.82;;;;;;;11.48;100.00;102099.88;4774410;30;20060;-78
2021/09/22 04:14:22;;;;;;;62.45;8.65;;;;;;;11.52;100.00;102092.28;4757445;30;20027;-79
2021/09/22 04:16:47;;;;;;;60.13;7.72;;;;;;;11.48;100.00;102080.19;4774798;30;20031;-78
2021/09/22 04:19:12;;;;;;;56.47;7.45;;;;;;;11.55;100.00;102083.84;4771092;30;20036;-78
2021/09/22 04:21:38;;;;;;;62.30;8.27;;;;;;;11.59;100.00;102087.03;4756452;30;20070;-78
2021/09/22 04:24:04;;;;;;;60.05;8.55;;;;;;;11.55;100.00;102089.25;4755742;30;20456;-78
2021/09/22 04:26:30;;;;;;;77.07;8.32;;;;;;;11.44;100.00;102071.59;4772078;30;20036;-78
2021/09/22 04:28:55;;;;;;;69.53;8.63;;;;;;;11.47;100.00;102090.13;4770947;30;20043;-78
2021/09/22 04:31:21;;;;;;;70.10;8.13;;;;;;;11.46;100.00;102093.00;4758452;30;20043;-79
2021/09/22 04:33:46;;;;;;;75.40;8.38;;;;;;;11.42;100.00;102076.34;4785161;30;20681;-78
2021/09/22 04:36:13;;;;;;;75.18;8.10;;;;;;;11.45;100.00;102081.38;4781423;30;20055;-78
2021/09/22 04:38:40;;;;;;;72.72;8.57;;;;;;;11.44;100.00;102090.47;4758537;30;20042;-78
2021/09/22 04:41:06;;;;;;;62.13;7.47;;;;;;;11.44;100.00;102087.78;4770626;30;20035;-78
2021/09/22 04:43:31;;;;;;;68.65;7.78;;;;;;;11.46;100.00;102093.00;4776167;30;20332;-78
2021/09/22 04:45:56;;;;;;;70.60;8.30;;;;;;;11.47;100.00;102089.28;4758000;30;20135;-76
2021/09/22 04:48:22;;;;;;;74.43;8.35;;;;;;;11.46;100.00;102084.94;4778465;30;20036;-78
2021/09/22 04:50:47;;;;;;;77.65;8.98;;;;;;;11.49;100.00;102088.13;4753659;30;20032;-78
2021/09/22 04:53:13;;;;;;;76.72;9.15;;;;;;;11.51;100.00;102093.31;4783429;30;20372;-78
2021/09/22 04:55:38;;;;;;;76.32;8.48;;;;;;;11.53;100.00;102091.28;4758563;30;20051;-77
2021/09/22 04:58:04;;;;;;;76.57;8.82;;;;;;;11.52;100.00;102097.69;4756131;30;20031;-78
2021/09/22 05:00:29;;;;;;;62.70;8.57;;;;;;;11.54;100.00;102095.66;4742622;30;20066;-77
2021/09/22 05:02:55;;;;;;;74.28;8.52;;;;;;;11.62;100.00;102092.94;4773585;30;20119;-78
2021/09/22 05:05:20;;;;;;;72.60;8.50;;;;;;;11.66;100.00;102093.44;4757801;30;20043;-78
2021/09/22 05:07:45;;;;;;;67.88;8.57;;;;;;;11.62;100.00;102084.00;4767306;30;20144;-77
2021/09/22 05:10:11;;;;;;;67.30;7.75;;;;;;;11.68;100.00;102097.63;4769425;30;20035;-77
2021/09/22 05:12:36;;;;;;;60.75;7.30;;;;;;;11.69;100.00;102101.19;4757746;30;20032;-78
2021/09/22 05:15:04;;;;;;;64.85;7.95;;;;;;;11.70;100.00;102101.00;4775306;30;20028;-78
2021/09/22 05:17:29;;;;;;;65.38;7.47;;;;;;;11.71;100.00;102099.13;4765028;30;20108;-78
2021/09/22 05:19:55;;;;;;;71.18;7.53;;;;;;;11.72;100.00;102101.69;4790310;30;20088;-78
2021/09/22 05:22:20;;;;;;;72.03;9.30;;;;;;;11.71;100.00;102097.28;4765726;30;20035;-78
2021/09/22 05:24:46;;;;;;;67.93;9.38;;;;;;;11.74;100.00;102112.28;4760588;30;20032;-78
2021/09/22 05:27:11;;;;;;;75.97;7.88;;;;;;;11.75;100.00;102114.81;4778847;30;20095;-76
2021/09/22 05:29:37;;;;;;;61.00;7.78;;;;;;;11.72;100.00;102108.91;4781658;30;20043;-78
2021/09/22 05:32:05;;;;;;;63.45;8.05;;;;;;;11.77;100.00;102111.91;4779518;30;20126;-77
2021/09/22 05:34:30;;;;;;;62.80;7.65;;;;;;;11.77;100.00;102112.75;4773510;30;20028;-77
2021/09/22 05:36:56;;;;;;;64.40;8.43;;;;;;;11.75;100.00;102105.84;4754601;30;20391;-77
2021/09/22 05:39:21;;;;;;;61.13;8.00;;;;;;;11.81;100.00;102120.50;4754580;30;20379;-77
2021/09/22 05:41:47;;;;;;;58.20;7.20;;;;;;;11.82;100.00;102119.47;4753258;30;20375;-77
2021/09/22 05:44:12;;;;;;;66.28;7.15;;;;;;;11.83;100.00;102122.03;4771884;30;20071;-77
2021/09/22 05:46:38;;;;;;;64.45;7.97;;;;;;;11.82;100.00;102108.69;4766508;30;20042;-77
2021/09/22 05:49:04;;;;;;;62.15;8.10;;;;;;;11.81;100.00;102107.84;4771433;30;20028;-77
2021/09/22 05:51:31;;;;;;;63.70;8.50;;;;;;;11.83;100.00;102105.84;4772126;30;20058;-78
2021/09/22 05:53:56;;;;;;;64.50;8.02;;;;;;;11.90;100.00;102111.41;4772755;30;20039;-77
2021/09/22 05:56:22;;;;;;;61.05;7.65;;;;;;;11.91;100.00;102113.06;4772395;30;20036;-77
2021/09/22 05:58:47;;;;;;;60.10;7.57;;;;;;;11.96;100.00;102108.00;4756714;30;20591;-77
2021/09/22 06:01:12;;;;;;;68.18;8.18;;;;;;;11.99;100.00;102110.34;4756381;30;20052;-77
2021/09/22 06:03:38;;;;;;;57.33;7.57;;;;;;;11.99;100.00;102113.03;4755092;30;20039;-77
2021/09/22 06:06:03;;;;;;;60.38;6.85;;;;;;;11.99;100.00;102110.34;4756642;30;20506;-77
2021/09/22 06:08:29;;;;;;;60.72;7.78;;;;;;;12.02;100.00;102118.09;4759158;30;20039;-77
2021/09/22 06:10:55;;;;;;;61.75;7.93;;;;;;;12.03;100.00;102105.44;4741659;30;20118;-77
2021/09/22 06:13:20;;;;;;;49.58;6.82;;;;;;;12.07;100.00;102099.50;4755349;30;20032;-78
2021/09/22 06:15:47;;;;;;;51.40;7.38;;;;;;;12.04;100.00;102080.13;4772020;30;20082;-77
2021/09/22 06:18:12;;;;;;;68.72;7.85;;;;;;;12.13;100.00;102095.25;4755774;30;20040;-76
2021/09/22 06:20:38;;;;;;;54.90;6.45;;;;;;;12.19;100.00;102099.94;4771322;30;20050;-77
2021/09/22 06:23:03;;;;;;;56.20;7.00;;;;;;;12.28;100.00;102103.41;4771122;30;20162;-77
2021/09/22 06:25:29;;;;;;;51.38;6.88;;;;;;;12.37;100.00;102105.88;4756473;30;20087;-78
2021/09/22 06:27:54;;;;;;;51.90;6.57;;;;;;;12.40;100.00;102102.00;4757645;30;20348;-77
2021/09/22 06:30:20;;;;;;;49.80;6.28;;;;;;;12.49;100.00;102106.31;4773596;30;20112;-77
2021/09/22 06:32:46;;;;;;;57.50;7.13;;;;;;;12.56;100.00;102104.59;4760356;30;20070;-77
2021/09/22 06:35:11;;;;;;;56.83;7.50;;;;;;;12.72;100.00;102109.03;4775854;30;20068;-78
2021/09/22 06:37:45;;;;;;;55.58;6.50;;;;;;;12.89;100.00;102102.44;4777006;30;20063;-78
2021/09/22 06:40:10;;;;;;;51.45;6.85;;;;;;;13.07;100.00;102104.81;4761370;30;20479;-77
2021/09/22 06:42:36;;;;;;;61.42;7.93;;;;;;;13.09;100.00;102097.34;4776232;30;20046;-77
2021/09/22 06:45:02;;;;;;;50.90;6.80;;;;;;;13.10;100.00;102103.59;4761442;30;20047;-77
2021/09/22 06:47:28;;;;;;;49.92;6.90;;;;;;;13.23;100.00;102095.69;4777783;30;20034;-78
2021/09/22 06:49:55;;;;;;;50.40;7.35;;;;;;;13.30;100.00;102085.84;4745278;30;20036;-77
2021/09/22 06:52:21;;;;;;;54.10;7.45;;;;;;;13.36;100.00;102089.69;4763880;30;20424;-76
2021/09/22 06:54:46;;;;;;;58.30;7.72;;;;;;;13.46;100.00;102079.41;4766971;30;20407;-77
2021/09/22 06:57:12;;;;;;;51.60;6.78;;;;;;;13.48;100.00;102085.50;4766900;30;20044;-77
2021/09/22 06:59:37;;;;;;;52.28;7.25;;;;;;;13.60;100.00;102085.84;4778038;30;20106;-78
2021/09/22 07:02:03;;;;;;;43.88;7.25;;;;;;;13.82;100.00;102075.94;4759243;30;20070;-77
2021/09/22 07:04:30;;;;;;;49.95;6.57;;;;;;;13.92;100.00;102086.47;4773112;30;20062;-77
2021/09/22 07:06:55;;;;;;;43.45;6.85;;;;;;;14.03;100.00;102089.50;4757779;30;20032;-78
2021/09/22 07:09:20;;;;;;;49.45;6.85;;;;;;;14.04;100.00;102085.78;4757637;30;20066;-77
2021/09/22 07:11:46;;;;;;;39.38;6.60;;;;;;;14.08;100.00;102089.78;4757858;30;20042;-77
2021/09/22 07:14:11;;;;;;;48.72;6.22;;;;;;;14.04;100.00;102080.38;4770974;30;20031;-76
2021/09/22 07:16:36;;;;;;;45.90;6.60;;;;;;;13.99;100.00;102081.97;4765848;30;20061;-78
2021/09/22 07:19:02;;;;;;;46.45;6.90;;;;;;;14.04;100.00;102082.25;4775561;30;20117;-78
2021/09/22 07:21:29;;;;;;;50.67;6.97;;;;;;;14.20;100.00;102081.16;4759822;30;20054;-78
2021/09/22 07:23:54;;;;;;;40.72;6.60;;;;;;;14.20;100.00;102089.28;4775311;30;20455;-78
2021/09/22 07:26:20;;;;;;;47.10;6.93;;;;;;;14.10;100.00;102060.66;4776009;30;20043;-77
2021/09/22 07:28:45;;;;;;;41.90;6.30;;;;;;;14.34;100.00;102080.28;4759215;30;20070;-78
2021/09/22 07:31:12;;;;;;;45.38;6.90;;;;;;;14.50;100.00;102066.50;4775051;30;20040;-78
2021/09/22 07:33:38;;;;;;;47.33;6.95;;;;;;;14.66;100.00;102067.25;4775390;30;20056;-77
2021/09/22 07:36:06;;;;;;;40.75;6.55;;;;;;;14.51;100.00;102035.69;4773556;30;20082;-78
2021/09/22 07:38:32;;;;;;;48.00;6.63;;;;;;;14.60;100.00;102078.88;4760591;30;20454;-78
2021/09/22 07:40:58;;;;;;;45.45;7.15;;;;;;;14.54;100.00;102078.63;4760718;30;20032;-77
2021/09/22 07:43:24;;;;;;;41.20;6.97;;;;;;;14.46;100.00;102073.28;4760499;30;20036;-78
2021/09/22 07:45:50;;;;;;;46.47;7.07;;;;;;;14.51;100.00;102087.13;4774900;30;20053;-78
2021/09/22 07:48:16;;;;;;;38.70;6.78;;;;;;;14.53;100.00;102086.94;4775755;30;20044;-78
2021/09/22 07:50:41;;;;;;;48.60;7.60;;;;;;;14.58;100.00;102084.50;4774641;30;20096;-78
2021/09/22 07:53:06;;;;;;;50.00;7.40;;;;;;;14.63;100.00;102079.31;4760576;30;20044;-78
2021/09/22 07:55:34;;;;;;;34.78;6.05;;;;;;;14.54;100.00;102073.22;4761466;30;20047;-78
2021/09/22 07:57:59;;;;;;;38.10;6.65;;;;;;;14.59;100.00;102079.91;4761863;30;20040;-79
2021/09/22 08:00:25;;;;;;;41.22;6.90;;;;;;;14.64;100.00;102091.00;4761516;30;20049;-78
2021/09/22 08:02:52;;;;;;;40.38;6.47;;;;;;;14.65;100.00;102088.09;4760751;30;20355;-78
2021/09/22 08:05:17;;;;;;;41.10;6.78;;;;;;;14.72;100.00;102090.88;4773513;30;20426;-78
2021/09/22 08:07:44;;;;;;;43.83;7.75;;;;;;;14.76;100.00;102089.44;4759968;30;20059;-78
2021/09/22 08:10:10;;;;;;;47.08;6.93;;;;;;;14.72;100.00;102088.97;4778609;30;20378;-77
2021/09/22 08:12:37;;;;;;;48.47;7.55;;;;;;;14.68;100.00;102084.16;4753268;30;20043;-76
2021/09/22 08:15:03;;;;;;;47.78;7.30;;;;;;;14.62;100.00;102071.41;4778416;30;20130;-78
2021/09/22 08:17:28;;;;;;;40.58;6.80;;;;;;;14.55;100.00;102068.63;4773923;30;20063;-78
2021/09/22 08:19:54;;;;;;;37.63;6.93;;;;;;;14.53;100.00;102067.97;4773359;30;20078;-78
2021/09/22 08:22:21;;;;;;;45.00;6.40;;;;;;;14.64;100.00;102085.59;4757989;30;20032;-78
2021/09/22 08:24:46;;;;;;;41.47;6.80;;;;;;;14.60;100.00;102074.28;4772438;30;20043;-78
2021/09/22 08:27:13;;;;;;;51.05;7.60;;;;;;;14.66;100.00;102078.09;4771799;30;20040;-78
2021/09/22 08:29:39;;;;;;;44.00;6.80;;;;;;;14.67;100.00;102072.50;4772985;30;20031;-78
2021/09/22 08:32:05;;;;;;;38.63;6.10;;;;;;;14.66;100.00;102064.53;4771523;30;20056;-78
2021/09/22 08:34:31;;;;;;;37.60;6.45;;;;;;;14.69;100.00;102075.00;4756237;30;20051;-77
2021/09/22 08:36:58;;;;;;;49.90;6.47;;;;;;;14.71;100.00;102062.09;4772598;30;20035;-78
2021/09/22 08:39:24;;;;;;;41.08;6.57;;;;;;;14.75;100.00;102064.22;4756772;30;20122;-78
2021/09/22 08:41:50;;;;;;;43.75;6.70;;;;;;;14.73;100.00;102060.84;4772384;30;20065;-78
2021/09/22 08:44:18;;;;;;;39.63;6.25;;;;;;;14.74;100.00;102065.25;4772248;30;20059;-78
2021/09/22 08:46:46;;;;;;;37.97;6.28;;;;;;;14.76;100.00;102067.75;4757456;30;20035;-78
2021/09/22 08:49:13;;;;;;;47.90;6.95;;;;;;;14.77;100.00;102056.72;4771415;30;20039;-78
2021/09/22 08:51:38;;;;;;;39.40;5.85;;;;;;;14.88;100.00;102062.66;4770577;30;20032;-78
2021/09/22 08:54:05;;;;;;;37.60;5.72;;;;;;;15.00;100.00;102056.50;4771756;30;20047;-78
2021/09/22 08:56:31;;;;;;;37.05;6.03;;;;;;;15.16;100.00;102058.03;4778363;29;20107;-78
2021/09/22 08:58:56;;;;;;;39.78;6.05;;;;;;;15.41;100.00;102052.97;4784932;30;20032;-79
2021/09/22 09:01:25;;;;;;;35.78;6.40;;;;;;;15.55;100.00;102051.16;4772975;30;20050;-78
2021/09/22 09:03:54;;;;;;;30.40;5.90;;;;;;;15.77;100.00;102062.78;4772224;30;20081;-79
2021/09/22 09:06:37;;;;;;;29.65;5.35;;;;;;;15.95;100.00;102057.59;4756547;30;20051;-78
2021/09/22 09:09:04;;;;;;;33.13;5.72;;;;;;;16.08;100.00;102050.53;4770407;30;20034;-78
2021/09/22 09:11:41;;;;;;;33.28;6.22;;;;;;;16.09;100.00;102047.66;4771317;30;20373;-78
2021/09/22 09:14:12;;;;;;;26.65;5.53;;;;;;;16.16;100.00;102042.22;4770781;30;20024;-79
2021/09/22 09:16:48;;;;;;;36.97;6.57;;;;;;;16.07;99.63;102021.72;4772496;30;20100;-78
2021/09/22 09:19:20;;;;;;;39.53;6.47;;;;;;;15.98;98.67;102004.78;4770154;30;20036;-78
2021/09/22 09:22:00;;;;;;;31.58;5.82;;;;;;;16.18;98.56;102029.25;4772185;30;20028;-78
2021/09/22 09:24:34;;;;;;;29.27;6.25;;;;;;;16.09;98.02;102006.91;4756455;30;20035;-79
2021/09/22 09:27:00;;;;;;;34.38;5.88;;;;;;;16.19;98.27;102009.19;4772437;30;20118;-78
2021/09/22 09:29:28;;;;;;;26.33;5.90;;;;;;;16.23;97.42;102013.19;4771654;30;20040;-79
2021/09/22 09:32:21;;;;;;;34.85;6.82;;;;;;;16.14;96.77;101987.28;4771485;30;20059;-77
2021/09/22 09:35:09;;;;;;;32.00;6.32;;;;;;;16.40;96.92;102003.59;4772009;30;20189;-78
2021/09/22 09:37:54;;;;;;;34.40;5.80;;;;;;;16.38;96.14;102002.94;4757700;30;20035;-79
2021/09/22 09:40:35;;;;;;;35.35;6.63;;;;;;;16.30;96.19;101995.03;4771983;30;20040;-78
2021/09/22 09:43:09;;;;;;;33.65;6.38;;;;;;;16.39;95.97;102003.78;4765317;30;20027;-78
2021/09/22 09:45:40;;;;;;;32.15;6.45;;;;;;;16.36;95.74;102007.78;4780979;30;20089;-77
2021/09/22 09:48:14;;;;;;;36.83;6.43;;;;;;;16.36;95.74;102005.06;4776070;29;20516;-78
2021/09/22 09:50:54;;;;;;;30.58;6.00;;;;;;;16.43;95.57;102003.19;4772804;30;20419;-79
2021/09/22 09:53:32;;;;;;;28.00;5.32;;;;;;;16.52;94.81;102003.78;4756738;30;20482;-79
2021/09/22 09:56:00;;;;;;;34.20;5.93;;;;;;;16.60;95.01;101989.16;4771377;30;20067;-78
2021/09/22 09:58:47;;;;;;;34.00;5.43;;;;;;;16.55;94.22;101983.50;4772429;30;20379;-79
2021/09/22 10:01:12;;;;;;;29.88;5.60;;;;;;;16.63;94.84;101983.31;4767286;30;20088;-78
2021/09/22 10:03:39;;;;;;;30.40;4.90;;;;;;;16.53;94.18;101962.00;4750536;30;20111;-78
2021/09/22 10:06:06;;;;;;;24.52;5.88;;;;;;;16.65;94.12;101983.91;4771262;30;20063;-79
2021/09/22 10:08:31;;;;;;;26.88;5.38;;;;;;;16.55;94.39;101965.31;4756604;30;20035;-78
2021/09/22 10:11:02;;;;;;;28.65;5.82;;;;;;;16.56;94.92;101966.19;4766813;30;20447;-79
2021/09/22 10:13:28;;;;;;;29.13;6.03;;;;;;;16.66;94.83;101978.28;4757050;30;20035;-79
2021/09/22 10:15:53;;;;;;;32.60;5.72;;;;;;;16.65;94.48;101976.63;4753436;30;20036;-78
2021/09/22 10:18:26;;;;;;;33.05;6.40;;;;;;;16.53;94.77;101966.59;4753886;30;20047;-78
2021/09/22 10:20:52;;;;;;;30.15;5.50;;;;;;;16.45;94.60;101963.03;4749758;30;20039;-78
2021/09/22 10:23:22;;;;;;;31.63;6.05;;;;;;;16.43;95.04;101967.84;4772185;30;20111;-79
2021/09/22 10:25:48;;;;;;;33.08;6.43;;;;;;;16.45;95.31;101965.75;4771896;30;20027;-78
2021/09/22 10:28:14;;;;;;;30.42;5.60;;;;;;;16.55;94.69;101959.06;4759975;30;20127;-78
2021/09/22 10:30:59;;;;;;;36.75;6.50;;;;;;;16.53;94.97;101956.56;4765783;30;20040;-78
2021/09/22 10:33:27;;;;;;;29.10;5.78;;;;;;;16.49;95.47;101955.31;4772609;30;20064;-78
2021/09/22 10:36:01;;;;;;;27.95;5.45;;;;;;;16.46;95.25;101953.03;4756819;30;20036;-78
2021/09/22 10:38:27;;;;;;;31.25;5.20;;;;;;;16.40;95.40;101943.81;4760210;30;20038;-79
2021/09/22 10:41:00;;;;;;;25.38;5.93;;;;;;;16.40;94.98;101948.44;4787115;29;20016;-79
2021/09/22 10:43:27;;;;;;;32.50;5.32;;;;;;;16.38;95.20;101954.06;4775146;30;20093;-78
2021/09/22 10:46:08;;;;;;;31.17;5.78;;;;;;;16.34;94.66;101958.25;4772234;30;20039;-78
2021/09/22 10:48:37;;;;;;;31.58;6.25;;;;;;;16.27;95.06;101953.88;4757090;30;20144;-77
2021/09/22 10:51:06;;;;;;;29.48;5.68;;;;;;;16.18;95.51;101953.22;4773901;30;20038;-77
2021/09/22 10:53:36;;;;;;;32.20;5.30;;;;;;;16.22;95.57;101951.75;4765655;30;20024;-78
2021/09/22 10:56:06;;;;;;;30.67;6.05;;;;;;;16.22;95.49;101959.91;4761889;30;20028;-78
2021/09/22 10:58:54;;;;;;;29.92;5.70;;;;;;;16.12;94.87;101943.19;4772459;30;20042;-79
2021/09/22 11:01:35;;;;;;;29.88;6.15;;;;;;;16.32;94.67;101954.88;4770234;30;20189;-78
2021/09/22 11:04:10;;;;;;;30.65;5.57;;;;;;;16.27;93.38;101946.53;4771937;30;20024;-79
2021/09/22 11:06:48;;;;;;;27.13;5.07;;;;;;;16.33;92.48;101962.00;4771534;30;20121;-78
2021/09/22 11:09:28;;;;;;;31.88;5.70;;;;;;;16.30;91.67;101953.44;4752048;30;20435;-79
2021/09/22 11:12:00;;;;;;;29.02;5.47;;;;;;;16.31;91.47;101958.66;4738290;30;20036;-79